<?xml version="1.0" encoding="UTF-8" standalone="no" ?><gpx xmlns="http://www.topografix.com/GPX/1/1" xmlns:gpxx="http://www.garmin.com/xmlschemas/WaypointExtension/v1" xmlns:gpxtrx="http://www.garmin.com/xmlschemas/GpxExtensions/v3" xmlns:gpxtpx="http://www.garmin.com/xmlschemas/TrackPointExtension/v1" creator="GPSMAP 62s" version="1.1" xmlns:xsi="http://www.w3.org/2001/XMLSchema-instance" xsi:schemaLocation="http://www.topografix.com/GPX/1/1 http://www.topografix.com/GPX/1/1/gpx.xsd http://www.garmin.com/xmlschemas/WaypointExtension/v1 http://www8.garmin.com/xmlschemas/WaypointExtensionv1.xsd http://www.garmin.com/xmlschemas/TrackPointExtension/v1 http://www.garmin.com/xmlschemas/TrackPointExtensionv1.xsd"><metadata><link href="http://www.garmin.com"><text>Garmin International</text></link><time>2011-09-22T19:47:25Z</time></metadata><trk><name>MM11-09-17 SA</name><extensions><gpxtrx:TrackExtension><gpxtrx:DisplayColor>Cyan</gpxtrx:DisplayColor></gpxtrx:TrackExtension></extensions><trkseg><trkpt lat="44.527821" lon="14.434951"><ele>19.84</ele><time>2011-09-17T15:46:26Z</time></trkpt><trkpt lat="44.527794" lon="14.434978"><ele>20.32</ele><time>2011-09-17T15:46:27Z</time></trkpt><trkpt lat="44.527317" lon="14.435468"><ele>6.39</ele><time>2011-09-17T15:46:45Z</time></trkpt><trkpt lat="44.526901" lon="14.435845"><ele>5.91</ele><time>2011-09-17T15:47:00Z</time></trkpt><trkpt lat="44.526348" lon="14.436353"><ele>1.10</ele><time>2011-09-17T15:47:19Z</time></trkpt><trkpt lat="44.525829" lon="14.436893"><ele>3.02</ele><time>2011-09-17T15:47:39Z</time></trkpt><trkpt lat="44.525333" lon="14.437399"><ele>3.50</ele><time>2011-09-17T15:47:58Z</time></trkpt><trkpt lat="44.524784" lon="14.437970"><ele>4.46</ele><time>2011-09-17T15:48:19Z</time></trkpt><trkpt lat="44.523956" lon="14.438766"><ele>3.50</ele><time>2011-09-17T15:48:50Z</time></trkpt><trkpt lat="44.523308" lon="14.439403"><ele>4.94</ele><time>2011-09-17T15:49:14Z</time></trkpt><trkpt lat="44.522583" lon="14.440122"><ele>4.94</ele><time>2011-09-17T15:49:41Z</time></trkpt><trkpt lat="44.521824" lon="14.440849"><ele>3.50</ele><time>2011-09-17T15:50:09Z</time></trkpt><trkpt lat="44.520996" lon="14.441640"><ele>2.06</ele><time>2011-09-17T15:50:39Z</time></trkpt><trkpt lat="44.520191" lon="14.442451"><ele>2.06</ele><time>2011-09-17T15:51:09Z</time></trkpt><trkpt lat="44.519440" lon="14.443208"><ele>2.54</ele><time>2011-09-17T15:51:37Z</time></trkpt><trkpt lat="44.518654" lon="14.443993"><ele>3.02</ele><time>2011-09-17T15:52:06Z</time></trkpt><trkpt lat="44.517815" lon="14.444844"><ele>3.50</ele><time>2011-09-17T15:52:37Z</time></trkpt><trkpt lat="44.516834" lon="14.445820"><ele>1.58</ele><time>2011-09-17T15:53:13Z</time></trkpt><trkpt lat="44.516052" lon="14.446598"><ele>1.58</ele><time>2011-09-17T15:53:42Z</time></trkpt><trkpt lat="44.515224" lon="14.447442"><ele>0.62</ele><time>2011-09-17T15:54:12Z</time></trkpt><trkpt lat="44.514225" lon="14.448431"><ele>0.62</ele><time>2011-09-17T15:54:48Z</time></trkpt><trkpt lat="44.513378" lon="14.449286"><ele>1.10</ele><time>2011-09-17T15:55:19Z</time></trkpt><trkpt lat="44.512466" lon="14.450180"><ele>1.10</ele><time>2011-09-17T15:55:52Z</time></trkpt><trkpt lat="44.511620" lon="14.451025"><ele>0.62</ele><time>2011-09-17T15:56:23Z</time></trkpt><trkpt lat="44.510853" lon="14.451777"><ele>-0.34</ele><time>2011-09-17T15:56:50Z</time></trkpt><trkpt lat="44.510098" lon="14.452551"><ele>-0.34</ele><time>2011-09-17T15:57:18Z</time></trkpt><trkpt lat="44.509323" lon="14.453346"><ele>1.10</ele><time>2011-09-17T15:57:46Z</time></trkpt><trkpt lat="44.508579" lon="14.454089"><ele>0.62</ele><time>2011-09-17T15:58:13Z</time></trkpt><trkpt lat="44.507645" lon="14.454998"><ele>-0.82</ele><time>2011-09-17T15:58:46Z</time></trkpt><trkpt lat="44.506958" lon="14.455680"><ele>-1.30</ele><time>2011-09-17T15:59:11Z</time></trkpt><trkpt lat="44.506222" lon="14.456403"><ele>-2.75</ele><time>2011-09-17T15:59:37Z</time></trkpt><trkpt lat="44.505474" lon="14.457150"><ele>-1.79</ele><time>2011-09-17T16:00:04Z</time></trkpt><trkpt lat="44.505085" lon="14.457541"><ele>-0.82</ele><time>2011-09-17T16:00:18Z</time></trkpt><trkpt lat="44.504635" lon="14.457977"><ele>-1.30</ele><time>2011-09-17T16:00:34Z</time></trkpt><trkpt lat="44.503998" lon="14.458611"><ele>-1.30</ele><time>2011-09-17T16:00:57Z</time></trkpt><trkpt lat="44.503262" lon="14.459324"><ele>-1.30</ele><time>2011-09-17T16:01:23Z</time></trkpt><trkpt lat="44.502754" lon="14.459815"><ele>-2.75</ele><time>2011-09-17T16:01:41Z</time></trkpt><trkpt lat="44.502163" lon="14.460390"><ele>-3.23</ele><time>2011-09-17T16:02:02Z</time></trkpt><trkpt lat="44.501408" lon="14.461125"><ele>-3.23</ele><time>2011-09-17T16:02:29Z</time></trkpt><trkpt lat="44.500755" lon="14.461741"><ele>-4.67</ele><time>2011-09-17T16:02:52Z</time></trkpt><trkpt lat="44.499901" lon="14.462568"><ele>-4.67</ele><time>2011-09-17T16:03:22Z</time></trkpt><trkpt lat="44.499046" lon="14.463385"><ele>-4.19</ele><time>2011-09-17T16:03:52Z</time></trkpt><trkpt lat="44.498264" lon="14.464156"><ele>-3.71</ele><time>2011-09-17T16:04:20Z</time></trkpt><trkpt lat="44.497444" lon="14.464952"><ele>-2.75</ele><time>2011-09-17T16:04:49Z</time></trkpt><trkpt lat="44.496696" lon="14.465704"><ele>-1.30</ele><time>2011-09-17T16:05:16Z</time></trkpt><trkpt lat="44.495914" lon="14.466470"><ele>-0.82</ele><time>2011-09-17T16:05:44Z</time></trkpt><trkpt lat="44.495129" lon="14.467248"><ele>-0.82</ele><time>2011-09-17T16:06:12Z</time></trkpt><trkpt lat="44.494404" lon="14.467970"><ele>-0.82</ele><time>2011-09-17T16:06:38Z</time></trkpt><trkpt lat="44.493702" lon="14.468661"><ele>-0.82</ele><time>2011-09-17T16:07:03Z</time></trkpt><trkpt lat="44.493057" lon="14.469289"><ele>-0.82</ele><time>2011-09-17T16:07:26Z</time></trkpt><trkpt lat="44.492252" lon="14.470052"><ele>-1.30</ele><time>2011-09-17T16:07:54Z</time></trkpt><trkpt lat="44.491474" lon="14.470777"><ele>-2.27</ele><time>2011-09-17T16:08:21Z</time></trkpt><trkpt lat="44.490704" lon="14.471527"><ele>-2.75</ele><time>2011-09-17T16:08:48Z</time></trkpt><trkpt lat="44.490055" lon="14.472162"><ele>-2.75</ele><time>2011-09-17T16:09:11Z</time></trkpt><trkpt lat="44.489220" lon="14.472941"><ele>-3.23</ele><time>2011-09-17T16:09:40Z</time></trkpt><trkpt lat="44.488388" lon="14.473702"><ele>-5.15</ele><time>2011-09-17T16:10:09Z</time></trkpt><trkpt lat="44.487553" lon="14.474490"><ele>-4.67</ele><time>2011-09-17T16:10:38Z</time></trkpt><trkpt lat="44.486839" lon="14.475165"><ele>-5.15</ele><time>2011-09-17T16:11:03Z</time></trkpt><trkpt lat="44.486176" lon="14.475585"><ele>-4.67</ele><time>2011-09-17T16:11:25Z</time></trkpt><trkpt lat="44.485634" lon="14.476093"><ele>-4.19</ele><time>2011-09-17T16:11:44Z</time></trkpt><trkpt lat="44.485050" lon="14.476604"><ele>-2.75</ele><time>2011-09-17T16:12:05Z</time></trkpt><trkpt lat="44.484459" lon="14.476625"><ele>-3.23</ele><time>2011-09-17T16:12:23Z</time></trkpt><trkpt lat="44.484192" lon="14.477131"><ele>-2.75</ele><time>2011-09-17T16:12:37Z</time></trkpt><trkpt lat="44.483753" lon="14.477618"><ele>-2.75</ele><time>2011-09-17T16:12:54Z</time></trkpt><trkpt lat="44.483177" lon="14.478014"><ele>-2.75</ele><time>2011-09-17T16:13:13Z</time></trkpt><trkpt lat="44.482533" lon="14.478555"><ele>-2.27</ele><time>2011-09-17T16:13:35Z</time></trkpt><trkpt lat="44.481907" lon="14.479161"><ele>-2.27</ele><time>2011-09-17T16:13:57Z</time></trkpt><trkpt lat="44.481152" lon="14.479919"><ele>-3.71</ele><time>2011-09-17T16:14:24Z</time></trkpt><trkpt lat="44.480419" lon="14.480633"><ele>-3.71</ele><time>2011-09-17T16:14:50Z</time></trkpt><trkpt lat="44.479668" lon="14.481403"><ele>-3.71</ele><time>2011-09-17T16:15:17Z</time></trkpt><trkpt lat="44.478943" lon="14.482126"><ele>-3.71</ele><time>2011-09-17T16:15:43Z</time></trkpt><trkpt lat="44.478024" lon="14.483043"><ele>-2.27</ele><time>2011-09-17T16:16:16Z</time></trkpt><trkpt lat="44.477322" lon="14.483750"><ele>-2.75</ele><time>2011-09-17T16:16:41Z</time></trkpt><trkpt lat="44.476631" lon="14.484469"><ele>-1.79</ele><time>2011-09-17T16:17:06Z</time></trkpt><trkpt lat="44.476051" lon="14.485060"><ele>-1.79</ele><time>2011-09-17T16:17:27Z</time></trkpt><trkpt lat="44.475319" lon="14.485793"><ele>-2.27</ele><time>2011-09-17T16:17:53Z</time></trkpt><trkpt lat="44.474377" lon="14.486725"><ele>-2.27</ele><time>2011-09-17T16:18:26Z</time></trkpt><trkpt lat="44.473392" lon="14.487726"><ele>-2.27</ele><time>2011-09-17T16:19:01Z</time></trkpt><trkpt lat="44.472561" lon="14.488582"><ele>-2.27</ele><time>2011-09-17T16:19:31Z</time></trkpt><trkpt lat="44.471699" lon="14.489481"><ele>-1.79</ele><time>2011-09-17T16:20:02Z</time></trkpt><trkpt lat="44.470787" lon="14.490446"><ele>-1.79</ele><time>2011-09-17T16:20:35Z</time></trkpt><trkpt lat="44.470024" lon="14.491218"><ele>-1.79</ele><time>2011-09-17T16:21:02Z</time></trkpt><trkpt lat="44.469311" lon="14.491904"><ele>-1.30</ele><time>2011-09-17T16:21:27Z</time></trkpt><trkpt lat="44.468414" lon="14.492764"><ele>-1.30</ele><time>2011-09-17T16:21:58Z</time></trkpt><trkpt lat="44.467712" lon="14.493549"><ele>-1.30</ele><time>2011-09-17T16:22:24Z</time></trkpt><trkpt lat="44.467018" lon="14.494249"><ele>-1.79</ele><time>2011-09-17T16:22:49Z</time></trkpt><trkpt lat="44.466293" lon="14.495005"><ele>-0.82</ele><time>2011-09-17T16:23:15Z</time></trkpt><trkpt lat="44.465721" lon="14.495662"><ele>-1.79</ele><time>2011-09-17T16:23:37Z</time></trkpt><trkpt lat="44.465164" lon="14.496196"><ele>-1.30</ele><time>2011-09-17T16:23:57Z</time></trkpt><trkpt lat="44.464306" lon="14.496929"><ele>-0.34</ele><time>2011-09-17T16:24:26Z</time></trkpt><trkpt lat="44.463608" lon="14.497624"><ele>-0.34</ele><time>2011-09-17T16:24:51Z</time></trkpt><trkpt lat="44.462658" lon="14.498401"><ele>0.14</ele><time>2011-09-17T16:25:22Z</time></trkpt><trkpt lat="44.461811" lon="14.499069"><ele>0.62</ele><time>2011-09-17T16:25:50Z</time></trkpt><trkpt lat="44.460892" lon="14.499843"><ele>-0.34</ele><time>2011-09-17T16:26:21Z</time></trkpt><trkpt lat="44.460106" lon="14.500588"><ele>0.14</ele><time>2011-09-17T16:26:48Z</time></trkpt><trkpt lat="44.459419" lon="14.501295"><ele>-1.79</ele><time>2011-09-17T16:27:13Z</time></trkpt><trkpt lat="44.458626" lon="14.502064"><ele>-1.79</ele><time>2011-09-17T16:27:41Z</time></trkpt><trkpt lat="44.457802" lon="14.502870"><ele>-2.27</ele><time>2011-09-17T16:28:10Z</time></trkpt><trkpt lat="44.456974" lon="14.503675"><ele>-2.27</ele><time>2011-09-17T16:28:39Z</time></trkpt><trkpt lat="44.456234" lon="14.504404"><ele>-1.30</ele><time>2011-09-17T16:29:05Z</time></trkpt><trkpt lat="44.455437" lon="14.505325"><ele>-1.79</ele><time>2011-09-17T16:29:35Z</time></trkpt><trkpt lat="44.454712" lon="14.506146"><ele>-1.79</ele><time>2011-09-17T16:30:02Z</time></trkpt><trkpt lat="44.453907" lon="14.507041"><ele>-1.79</ele><time>2011-09-17T16:30:32Z</time></trkpt><trkpt lat="44.453083" lon="14.507981"><ele>-1.79</ele><time>2011-09-17T16:31:03Z</time></trkpt><trkpt lat="44.452206" lon="14.508986"><ele>-1.30</ele><time>2011-09-17T16:31:36Z</time></trkpt><trkpt lat="44.451382" lon="14.509935"><ele>-0.82</ele><time>2011-09-17T16:32:07Z</time></trkpt><trkpt lat="44.450478" lon="14.510940"><ele>-0.82</ele><time>2011-09-17T16:32:41Z</time></trkpt><trkpt lat="44.449642" lon="14.511904"><ele>-0.82</ele><time>2011-09-17T16:33:13Z</time></trkpt><trkpt lat="44.448902" lon="14.512743"><ele>-1.79</ele><time>2011-09-17T16:33:41Z</time></trkpt><trkpt lat="44.448174" lon="14.513583"><ele>-1.30</ele><time>2011-09-17T16:34:09Z</time></trkpt><trkpt lat="44.447327" lon="14.514539"><ele>-1.30</ele><time>2011-09-17T16:34:41Z</time></trkpt><trkpt lat="44.446495" lon="14.515499"><ele>-1.30</ele><time>2011-09-17T16:35:13Z</time></trkpt><trkpt lat="44.445763" lon="14.516346"><ele>-1.79</ele><time>2011-09-17T16:35:41Z</time></trkpt><trkpt lat="44.444931" lon="14.517299"><ele>-2.75</ele><time>2011-09-17T16:36:13Z</time></trkpt><trkpt lat="44.443977" lon="14.518409"><ele>-2.27</ele><time>2011-09-17T16:36:50Z</time></trkpt><trkpt lat="44.443153" lon="14.519350"><ele>-2.75</ele><time>2011-09-17T16:37:22Z</time></trkpt><trkpt lat="44.442356" lon="14.520307"><ele>-3.23</ele><time>2011-09-17T16:37:54Z</time></trkpt><trkpt lat="44.441631" lon="14.521151"><ele>-2.75</ele><time>2011-09-17T16:38:23Z</time></trkpt><trkpt lat="44.440773" lon="14.522174"><ele>-3.23</ele><time>2011-09-17T16:38:58Z</time></trkpt><trkpt lat="44.440041" lon="14.523064"><ele>-3.23</ele><time>2011-09-17T16:39:28Z</time></trkpt><trkpt lat="44.439194" lon="14.524113"><ele>-2.27</ele><time>2011-09-17T16:40:03Z</time></trkpt><trkpt lat="44.438381" lon="14.525067"><ele>-3.23</ele><time>2011-09-17T16:40:36Z</time></trkpt><trkpt lat="44.437710" lon="14.525863"><ele>-3.71</ele><time>2011-09-17T16:41:03Z</time></trkpt><trkpt lat="44.436970" lon="14.526751"><ele>-3.23</ele><time>2011-09-17T16:41:33Z</time></trkpt><trkpt lat="44.436398" lon="14.527455"><ele>-2.75</ele><time>2011-09-17T16:41:56Z</time></trkpt><trkpt lat="44.435654" lon="14.528351"><ele>-2.27</ele><time>2011-09-17T16:42:26Z</time></trkpt><trkpt lat="44.434956" lon="14.529187"><ele>-2.27</ele><time>2011-09-17T16:42:54Z</time></trkpt><trkpt lat="44.434212" lon="14.530067"><ele>-2.75</ele><time>2011-09-17T16:43:24Z</time></trkpt><trkpt lat="44.433495" lon="14.530941"><ele>-1.79</ele><time>2011-09-17T16:43:53Z</time></trkpt><trkpt lat="44.432785" lon="14.531773"><ele>-2.75</ele><time>2011-09-17T16:44:21Z</time></trkpt><trkpt lat="44.432163" lon="14.532508"><ele>-3.71</ele><time>2011-09-17T16:44:46Z</time></trkpt><trkpt lat="44.431412" lon="14.533403"><ele>-4.67</ele><time>2011-09-17T16:45:16Z</time></trkpt><trkpt lat="44.430645" lon="14.534308"><ele>-4.19</ele><time>2011-09-17T16:45:47Z</time></trkpt><trkpt lat="44.430054" lon="14.535012"><ele>-3.71</ele><time>2011-09-17T16:46:11Z</time></trkpt><trkpt lat="44.429409" lon="14.535782"><ele>-2.75</ele><time>2011-09-17T16:46:37Z</time></trkpt><trkpt lat="44.428658" lon="14.536672"><ele>-3.23</ele><time>2011-09-17T16:47:07Z</time></trkpt><trkpt lat="44.427917" lon="14.537559"><ele>-3.71</ele><time>2011-09-17T16:47:37Z</time></trkpt><trkpt lat="44.427113" lon="14.538496"><ele>-4.19</ele><time>2011-09-17T16:48:09Z</time></trkpt><trkpt lat="44.426296" lon="14.539475"><ele>-3.23</ele><time>2011-09-17T16:48:42Z</time></trkpt><trkpt lat="44.425507" lon="14.540424"><ele>-3.71</ele><time>2011-09-17T16:49:14Z</time></trkpt><trkpt lat="44.424763" lon="14.541331"><ele>-3.71</ele><time>2011-09-17T16:49:44Z</time></trkpt><trkpt lat="44.423954" lon="14.542315"><ele>-3.71</ele><time>2011-09-17T16:50:17Z</time></trkpt><trkpt lat="44.423279" lon="14.543154"><ele>-4.67</ele><time>2011-09-17T16:50:45Z</time></trkpt><trkpt lat="44.422615" lon="14.543997"><ele>-4.19</ele><time>2011-09-17T16:51:13Z</time></trkpt><trkpt lat="44.421871" lon="14.544920"><ele>-2.75</ele><time>2011-09-17T16:51:44Z</time></trkpt><trkpt lat="44.421143" lon="14.545801"><ele>-2.27</ele><time>2011-09-17T16:52:14Z</time></trkpt><trkpt lat="44.420368" lon="14.546760"><ele>-2.75</ele><time>2011-09-17T16:52:47Z</time></trkpt><trkpt lat="44.419613" lon="14.547734"><ele>-2.27</ele><time>2011-09-17T16:53:20Z</time></trkpt><trkpt lat="44.418888" lon="14.548638"><ele>-1.30</ele><time>2011-09-17T16:53:51Z</time></trkpt><trkpt lat="44.418110" lon="14.549609"><ele>-1.79</ele><time>2011-09-17T16:54:24Z</time></trkpt><trkpt lat="44.417336" lon="14.550592"><ele>-1.79</ele><time>2011-09-17T16:54:57Z</time></trkpt><trkpt lat="44.416546" lon="14.551614"><ele>-2.75</ele><time>2011-09-17T16:55:31Z</time></trkpt><trkpt lat="44.415768" lon="14.552643"><ele>-1.79</ele><time>2011-09-17T16:56:05Z</time></trkpt><trkpt lat="44.415077" lon="14.553495"><ele>-2.75</ele><time>2011-09-17T16:56:34Z</time></trkpt><trkpt lat="44.414303" lon="14.554503"><ele>-2.75</ele><time>2011-09-17T16:57:07Z</time></trkpt><trkpt lat="44.413494" lon="14.555514"><ele>-2.75</ele><time>2011-09-17T16:57:41Z</time></trkpt><trkpt lat="44.412701" lon="14.556541"><ele>-2.75</ele><time>2011-09-17T16:58:15Z</time></trkpt><trkpt lat="44.411938" lon="14.557520"><ele>-1.79</ele><time>2011-09-17T16:58:48Z</time></trkpt><trkpt lat="44.411217" lon="14.558401"><ele>-1.79</ele><time>2011-09-17T16:59:18Z</time></trkpt><trkpt lat="44.410461" lon="14.559339"><ele>-2.27</ele><time>2011-09-17T16:59:50Z</time></trkpt><trkpt lat="44.409805" lon="14.560149"><ele>-3.23</ele><time>2011-09-17T17:00:18Z</time></trkpt><trkpt lat="44.409241" lon="14.560846"><ele>-2.27</ele><time>2011-09-17T17:00:42Z</time></trkpt><trkpt lat="44.408424" lon="14.561879"><ele>-1.79</ele><time>2011-09-17T17:01:17Z</time></trkpt><trkpt lat="44.407585" lon="14.562936"><ele>-2.75</ele><time>2011-09-17T17:01:53Z</time></trkpt><trkpt lat="44.406761" lon="14.564002"><ele>-2.27</ele><time>2011-09-17T17:02:29Z</time></trkpt><trkpt lat="44.405968" lon="14.565001"><ele>-2.75</ele><time>2011-09-17T17:03:03Z</time></trkpt><trkpt lat="44.405148" lon="14.566031"><ele>-3.23</ele><time>2011-09-17T17:03:38Z</time></trkpt><trkpt lat="44.404305" lon="14.567087"><ele>-3.71</ele><time>2011-09-17T17:04:14Z</time></trkpt><trkpt lat="44.403419" lon="14.568215"><ele>-3.23</ele><time>2011-09-17T17:04:52Z</time></trkpt><trkpt lat="44.402504" lon="14.569328"><ele>-3.23</ele><time>2011-09-17T17:05:30Z</time></trkpt><trkpt lat="44.401791" lon="14.570205"><ele>-2.75</ele><time>2011-09-17T17:06:00Z</time></trkpt><trkpt lat="44.400860" lon="14.571346"><ele>-2.75</ele><time>2011-09-17T17:06:39Z</time></trkpt><trkpt lat="44.400074" lon="14.572279"><ele>-2.27</ele><time>2011-09-17T17:07:11Z</time></trkpt><trkpt lat="44.399399" lon="14.573086"><ele>-2.27</ele><time>2011-09-17T17:07:39Z</time></trkpt><trkpt lat="44.398682" lon="14.573925"><ele>-1.79</ele><time>2011-09-17T17:08:09Z</time></trkpt><trkpt lat="44.398064" lon="14.574664"><ele>-2.27</ele><time>2011-09-17T17:08:35Z</time></trkpt><trkpt lat="44.397339" lon="14.575515"><ele>-1.79</ele><time>2011-09-17T17:09:06Z</time></trkpt><trkpt lat="44.396599" lon="14.576349"><ele>-1.79</ele><time>2011-09-17T17:09:37Z</time></trkpt><trkpt lat="44.395821" lon="14.577223"><ele>-2.27</ele><time>2011-09-17T17:10:10Z</time></trkpt><trkpt lat="44.395088" lon="14.578053"><ele>-2.27</ele><time>2011-09-17T17:10:41Z</time></trkpt><trkpt lat="44.394436" lon="14.578810"><ele>-3.71</ele><time>2011-09-17T17:11:09Z</time></trkpt><trkpt lat="44.393608" lon="14.579756"><ele>-3.23</ele><time>2011-09-17T17:11:44Z</time></trkpt><trkpt lat="44.392754" lon="14.580702"><ele>-2.27</ele><time>2011-09-17T17:12:20Z</time></trkpt><trkpt lat="44.391972" lon="14.581580"><ele>-2.27</ele><time>2011-09-17T17:12:53Z</time></trkpt><trkpt lat="44.391212" lon="14.582422"><ele>-2.75</ele><time>2011-09-17T17:13:25Z</time></trkpt><trkpt lat="44.390457" lon="14.583263"><ele>-2.75</ele><time>2011-09-17T17:13:57Z</time></trkpt><trkpt lat="44.389744" lon="14.584064"><ele>-2.75</ele><time>2011-09-17T17:14:27Z</time></trkpt><trkpt lat="44.388897" lon="14.585016"><ele>-1.79</ele><time>2011-09-17T17:15:03Z</time></trkpt><trkpt lat="44.388092" lon="14.585924"><ele>-1.30</ele><time>2011-09-17T17:15:37Z</time></trkpt><trkpt lat="44.387306" lon="14.586803"><ele>-1.30</ele><time>2011-09-17T17:16:10Z</time></trkpt><trkpt lat="44.386497" lon="14.587706"><ele>-1.30</ele><time>2011-09-17T17:16:44Z</time></trkpt><trkpt lat="44.385738" lon="14.588548"><ele>-1.79</ele><time>2011-09-17T17:17:16Z</time></trkpt><trkpt lat="44.384823" lon="14.589588"><ele>-2.27</ele><time>2011-09-17T17:17:55Z</time></trkpt><trkpt lat="44.384041" lon="14.590453"><ele>-2.75</ele><time>2011-09-17T17:18:28Z</time></trkpt><trkpt lat="44.383347" lon="14.591217"><ele>-3.23</ele><time>2011-09-17T17:18:57Z</time></trkpt><trkpt lat="44.382549" lon="14.592112"><ele>-2.75</ele><time>2011-09-17T17:19:31Z</time></trkpt><trkpt lat="44.381824" lon="14.592901"><ele>-3.71</ele><time>2011-09-17T17:20:01Z</time></trkpt><trkpt lat="44.381001" lon="14.593821"><ele>-2.27</ele><time>2011-09-17T17:20:36Z</time></trkpt><trkpt lat="44.380276" lon="14.594614"><ele>-2.27</ele><time>2011-09-17T17:21:06Z</time></trkpt><trkpt lat="44.379490" lon="14.595471"><ele>-1.79</ele><time>2011-09-17T17:21:39Z</time></trkpt><trkpt lat="44.378750" lon="14.596272"><ele>-1.79</ele><time>2011-09-17T17:22:10Z</time></trkpt><trkpt lat="44.377968" lon="14.597131"><ele>-1.79</ele><time>2011-09-17T17:22:43Z</time></trkpt><trkpt lat="44.377209" lon="14.597943"><ele>-1.30</ele><time>2011-09-17T17:23:15Z</time></trkpt><trkpt lat="44.376347" lon="14.598863"><ele>-0.82</ele><time>2011-09-17T17:23:51Z</time></trkpt><trkpt lat="44.375404" lon="14.599899"><ele>-0.82</ele><time>2011-09-17T17:24:31Z</time></trkpt><trkpt lat="44.374607" lon="14.600773"><ele>-0.82</ele><time>2011-09-17T17:25:05Z</time></trkpt><trkpt lat="44.373779" lon="14.601683"><ele>-1.30</ele><time>2011-09-17T17:25:40Z</time></trkpt><trkpt lat="44.372929" lon="14.602624"><ele>-0.82</ele><time>2011-09-17T17:26:16Z</time></trkpt><trkpt lat="44.372196" lon="14.603440"><ele>-0.82</ele><time>2011-09-17T17:26:47Z</time></trkpt><trkpt lat="44.371391" lon="14.604341"><ele>-0.34</ele><time>2011-09-17T17:27:21Z</time></trkpt><trkpt lat="44.370468" lon="14.605354"><ele>-0.82</ele><time>2011-09-17T17:28:00Z</time></trkpt><trkpt lat="44.369637" lon="14.606284"><ele>-1.30</ele><time>2011-09-17T17:28:35Z</time></trkpt><trkpt lat="44.368782" lon="14.607232"><ele>-2.27</ele><time>2011-09-17T17:29:11Z</time></trkpt><trkpt lat="44.367859" lon="14.608282"><ele>-1.79</ele><time>2011-09-17T17:29:50Z</time></trkpt><trkpt lat="44.367191" lon="14.609030"><ele>-0.34</ele><time>2011-09-17T17:30:18Z</time></trkpt><trkpt lat="44.366486" lon="14.609830"><ele>-0.34</ele><time>2011-09-17T17:30:48Z</time></trkpt><trkpt lat="44.365688" lon="14.610712"><ele>-0.34</ele><time>2011-09-17T17:31:21Z</time></trkpt><trkpt lat="44.364948" lon="14.611542"><ele>0.62</ele><time>2011-09-17T17:31:52Z</time></trkpt><trkpt lat="44.364086" lon="14.612545"><ele>-0.34</ele><time>2011-09-17T17:32:29Z</time></trkpt><trkpt lat="44.363201" lon="14.613539"><ele>0.62</ele><time>2011-09-17T17:33:06Z</time></trkpt><trkpt lat="44.362408" lon="14.614429"><ele>1.10</ele><time>2011-09-17T17:33:39Z</time></trkpt><trkpt lat="44.361530" lon="14.615470"><ele>0.62</ele><time>2011-09-17T17:34:17Z</time></trkpt><trkpt lat="44.360825" lon="14.616343"><ele>0.14</ele><time>2011-09-17T17:34:48Z</time></trkpt><trkpt lat="44.360249" lon="14.617336"><ele>0.62</ele><time>2011-09-17T17:35:18Z</time></trkpt><trkpt lat="44.359550" lon="14.618502"><ele>0.14</ele><time>2011-09-17T17:35:54Z</time></trkpt><trkpt lat="44.358852" lon="14.619666"><ele>0.14</ele><time>2011-09-17T17:36:30Z</time></trkpt><trkpt lat="44.358196" lon="14.620781"><ele>-0.82</ele><time>2011-09-17T17:37:04Z</time></trkpt><trkpt lat="44.357460" lon="14.622020"><ele>-1.30</ele><time>2011-09-17T17:37:42Z</time></trkpt><trkpt lat="44.356766" lon="14.623199"><ele>-2.75</ele><time>2011-09-17T17:38:18Z</time></trkpt><trkpt lat="44.356144" lon="14.624252"><ele>-1.79</ele><time>2011-09-17T17:38:50Z</time></trkpt><trkpt lat="44.355450" lon="14.625389"><ele>0.14</ele><time>2011-09-17T17:39:25Z</time></trkpt><trkpt lat="44.354767" lon="14.626480"><ele>2.06</ele><time>2011-09-17T17:39:59Z</time></trkpt><trkpt lat="44.354065" lon="14.627668"><ele>1.10</ele><time>2011-09-17T17:40:35Z</time></trkpt><trkpt lat="44.353333" lon="14.628955"><ele>0.14</ele><time>2011-09-17T17:41:13Z</time></trkpt><trkpt lat="44.352554" lon="14.630328"><ele>-0.82</ele><time>2011-09-17T17:41:54Z</time></trkpt><trkpt lat="44.351841" lon="14.631564"><ele>-1.30</ele><time>2011-09-17T17:42:31Z</time></trkpt><trkpt lat="44.351082" lon="14.632855"><ele>0.14</ele><time>2011-09-17T17:43:10Z</time></trkpt><trkpt lat="44.350422" lon="14.634025"><ele>1.10</ele><time>2011-09-17T17:43:45Z</time></trkpt><trkpt lat="44.350235" lon="14.635119"><ele>1.10</ele><time>2011-09-17T17:44:12Z</time></trkpt><trkpt lat="44.349930" lon="14.636749"><ele>0.62</ele><time>2011-09-17T17:44:52Z</time></trkpt><trkpt lat="44.349724" lon="14.637975"><ele>0.62</ele><time>2011-09-17T17:45:22Z</time></trkpt><trkpt lat="44.349483" lon="14.639432"><ele>1.58</ele><time>2011-09-17T17:45:58Z</time></trkpt><trkpt lat="44.349205" lon="14.641190"><ele>0.14</ele><time>2011-09-17T17:46:41Z</time></trkpt><trkpt lat="44.349075" lon="14.642421"><ele>0.62</ele><time>2011-09-17T17:47:11Z</time></trkpt><trkpt lat="44.348995" lon="14.644054"><ele>0.14</ele><time>2011-09-17T17:47:50Z</time></trkpt><trkpt lat="44.348995" lon="14.645457"><ele>-1.30</ele><time>2011-09-17T17:48:24Z</time></trkpt><trkpt lat="44.349037" lon="14.647066"><ele>-1.79</ele><time>2011-09-17T17:49:03Z</time></trkpt><trkpt lat="44.349072" lon="14.648649"><ele>-2.27</ele><time>2011-09-17T17:49:41Z</time></trkpt><trkpt lat="44.349098" lon="14.650487"><ele>-2.27</ele><time>2011-09-17T17:50:25Z</time></trkpt><trkpt lat="44.349121" lon="14.652102"><ele>0.62</ele><time>2011-09-17T17:51:04Z</time></trkpt><trkpt lat="44.349171" lon="14.653666"><ele>3.02</ele><time>2011-09-17T17:51:42Z</time></trkpt><trkpt lat="44.349209" lon="14.655034"><ele>0.14</ele><time>2011-09-17T17:52:15Z</time></trkpt><trkpt lat="44.349239" lon="14.656310"><ele>-2.75</ele><time>2011-09-17T17:52:46Z</time></trkpt><trkpt lat="44.349289" lon="14.657675"><ele>-0.82</ele><time>2011-09-17T17:53:19Z</time></trkpt><trkpt lat="44.349342" lon="14.659106"><ele>1.10</ele><time>2011-09-17T17:53:54Z</time></trkpt><trkpt lat="44.349415" lon="14.660583"><ele>1.10</ele><time>2011-09-17T17:54:30Z</time></trkpt><trkpt lat="44.349503" lon="14.662066"><ele>3.02</ele><time>2011-09-17T17:55:06Z</time></trkpt><trkpt lat="44.349598" lon="14.663532"><ele>3.50</ele><time>2011-09-17T17:55:42Z</time></trkpt><trkpt lat="44.349678" lon="14.664765"><ele>3.50</ele><time>2011-09-17T17:56:12Z</time></trkpt><trkpt lat="44.349789" lon="14.666194"><ele>1.58</ele><time>2011-09-17T17:56:47Z</time></trkpt><trkpt lat="44.349934" lon="14.667917"><ele>-1.79</ele><time>2011-09-17T17:57:29Z</time></trkpt><trkpt lat="44.350033" lon="14.669194"><ele>-1.30</ele><time>2011-09-17T17:58:00Z</time></trkpt><trkpt lat="44.350147" lon="14.670661"><ele>-0.82</ele><time>2011-09-17T17:58:36Z</time></trkpt><trkpt lat="44.350273" lon="14.672031"><ele>1.58</ele><time>2011-09-17T17:59:10Z</time></trkpt><trkpt lat="44.350380" lon="14.673382"><ele>3.02</ele><time>2011-09-17T17:59:43Z</time></trkpt><trkpt lat="44.350471" lon="14.674698"><ele>2.06</ele><time>2011-09-17T18:00:16Z</time></trkpt><trkpt lat="44.350613" lon="14.676314"><ele>2.06</ele><time>2011-09-17T18:00:56Z</time></trkpt><trkpt lat="44.350719" lon="14.677660"><ele>-0.34</ele><time>2011-09-17T18:01:29Z</time></trkpt><trkpt lat="44.350807" lon="14.678919"><ele>0.14</ele><time>2011-09-17T18:02:00Z</time></trkpt><trkpt lat="44.350906" lon="14.680382"><ele>-2.27</ele><time>2011-09-17T18:02:36Z</time></trkpt><trkpt lat="44.351028" lon="14.681839"><ele>-0.82</ele><time>2011-09-17T18:03:12Z</time></trkpt><trkpt lat="44.351162" lon="14.683312"><ele>2.54</ele><time>2011-09-17T18:03:48Z</time></trkpt><trkpt lat="44.351299" lon="14.684853"><ele>3.98</ele><time>2011-09-17T18:04:26Z</time></trkpt><trkpt lat="44.351414" lon="14.686172"><ele>3.50</ele><time>2011-09-17T18:04:58Z</time></trkpt><trkpt lat="44.351555" lon="14.687580"><ele>0.62</ele><time>2011-09-17T18:05:33Z</time></trkpt><trkpt lat="44.351704" lon="14.689121"><ele>0.62</ele><time>2011-09-17T18:06:10Z</time></trkpt><trkpt lat="44.351818" lon="14.690497"><ele>1.10</ele><time>2011-09-17T18:06:44Z</time></trkpt><trkpt lat="44.351940" lon="14.691818"><ele>2.54</ele><time>2011-09-17T18:07:16Z</time></trkpt><trkpt lat="44.352051" lon="14.693150"><ele>3.98</ele><time>2011-09-17T18:07:48Z</time></trkpt><trkpt lat="44.352165" lon="14.694595"><ele>4.46</ele><time>2011-09-17T18:08:23Z</time></trkpt><trkpt lat="44.352123" lon="14.695639"><ele>3.02</ele><time>2011-09-17T18:08:49Z</time></trkpt><trkpt lat="44.351509" lon="14.696966"><ele>2.06</ele><time>2011-09-17T18:09:28Z</time></trkpt><trkpt lat="44.351002" lon="14.698211"><ele>1.58</ele><time>2011-09-17T18:10:03Z</time></trkpt><trkpt lat="44.350624" lon="14.699119"><ele>1.58</ele><time>2011-09-17T18:10:29Z</time></trkpt><trkpt lat="44.350143" lon="14.700336"><ele>1.10</ele><time>2011-09-17T18:11:03Z</time></trkpt><trkpt lat="44.349678" lon="14.701517"><ele>-0.34</ele><time>2011-09-17T18:11:36Z</time></trkpt><trkpt lat="44.349144" lon="14.702905"><ele>-0.82</ele><time>2011-09-17T18:12:15Z</time></trkpt><trkpt lat="44.348606" lon="14.704193"><ele>-2.75</ele><time>2011-09-17T18:12:51Z</time></trkpt><trkpt lat="44.348114" lon="14.705453"><ele>0.14</ele><time>2011-09-17T18:13:26Z</time></trkpt><trkpt lat="44.347656" lon="14.706643"><ele>0.14</ele><time>2011-09-17T18:13:59Z</time></trkpt><trkpt lat="44.347118" lon="14.708012"><ele>2.06</ele><time>2011-09-17T18:14:37Z</time></trkpt><trkpt lat="44.346622" lon="14.709225"><ele>3.02</ele><time>2011-09-17T18:15:11Z</time></trkpt><trkpt lat="44.346088" lon="14.710502"><ele>3.50</ele><time>2011-09-17T18:15:47Z</time></trkpt><trkpt lat="44.345573" lon="14.711782"><ele>2.06</ele><time>2011-09-17T18:16:22Z</time></trkpt><trkpt lat="44.345024" lon="14.713121"><ele>1.58</ele><time>2011-09-17T18:16:59Z</time></trkpt><trkpt lat="44.344433" lon="14.714532"><ele>2.06</ele><time>2011-09-17T18:17:38Z</time></trkpt><trkpt lat="44.343868" lon="14.715905"><ele>2.54</ele><time>2011-09-17T18:18:16Z</time></trkpt><trkpt lat="44.343319" lon="14.717114"><ele>3.50</ele><time>2011-09-17T18:18:50Z</time></trkpt><trkpt lat="44.342674" lon="14.718528"><ele>3.02</ele><time>2011-09-17T18:19:30Z</time></trkpt><trkpt lat="44.342056" lon="14.719902"><ele>2.54</ele><time>2011-09-17T18:20:09Z</time></trkpt><trkpt lat="44.341385" lon="14.721287"><ele>3.50</ele><time>2011-09-17T18:20:49Z</time></trkpt><trkpt lat="44.340710" lon="14.722663"><ele>2.54</ele><time>2011-09-17T18:21:29Z</time></trkpt><trkpt lat="44.339973" lon="14.724116"><ele>3.02</ele><time>2011-09-17T18:22:12Z</time></trkpt><trkpt lat="44.339272" lon="14.725515"><ele>2.54</ele><time>2011-09-17T18:22:53Z</time></trkpt><trkpt lat="44.338577" lon="14.726750"><ele>3.02</ele><time>2011-09-17T18:23:31Z</time></trkpt><trkpt lat="44.337872" lon="14.727946"><ele>1.10</ele><time>2011-09-17T18:24:08Z</time></trkpt><trkpt lat="44.337097" lon="14.729229"><ele>0.62</ele><time>2011-09-17T18:24:48Z</time></trkpt><trkpt lat="44.336300" lon="14.730461"><ele>1.10</ele><time>2011-09-17T18:25:27Z</time></trkpt><trkpt lat="44.335548" lon="14.731612"><ele>1.10</ele><time>2011-09-17T18:26:04Z</time></trkpt><trkpt lat="44.334759" lon="14.732874"><ele>2.06</ele><time>2011-09-17T18:26:44Z</time></trkpt><trkpt lat="44.333885" lon="14.734168"><ele>1.58</ele><time>2011-09-17T18:27:26Z</time></trkpt><trkpt lat="44.333084" lon="14.735391"><ele>0.14</ele><time>2011-09-17T18:28:05Z</time></trkpt><trkpt lat="44.332138" lon="14.736842"><ele>-1.79</ele><time>2011-09-17T18:28:51Z</time></trkpt><trkpt lat="44.331291" lon="14.738132"><ele>0.14</ele><time>2011-09-17T18:29:32Z</time></trkpt><trkpt lat="44.330513" lon="14.739292"><ele>1.10</ele><time>2011-09-17T18:30:09Z</time></trkpt><trkpt lat="44.329700" lon="14.740473"><ele>-0.34</ele><time>2011-09-17T18:30:47Z</time></trkpt><trkpt lat="44.328854" lon="14.741744"><ele>-0.82</ele><time>2011-09-17T18:31:27Z</time></trkpt><trkpt lat="44.328144" lon="14.742767"><ele>-1.30</ele><time>2011-09-17T18:32:00Z</time></trkpt><trkpt lat="44.327297" lon="14.744027"><ele>-0.82</ele><time>2011-09-17T18:32:40Z</time></trkpt><trkpt lat="44.326469" lon="14.745226"><ele>-1.30</ele><time>2011-09-17T18:33:19Z</time></trkpt><trkpt lat="44.325764" lon="14.746285"><ele>-0.34</ele><time>2011-09-17T18:33:53Z</time></trkpt><trkpt lat="44.325085" lon="14.747257"><ele>0.62</ele><time>2011-09-17T18:34:25Z</time></trkpt><trkpt lat="44.324394" lon="14.748268"><ele>1.10</ele><time>2011-09-17T18:34:58Z</time></trkpt><trkpt lat="44.323689" lon="14.749296"><ele>1.10</ele><time>2011-09-17T18:35:32Z</time></trkpt><trkpt lat="44.322971" lon="14.750277"><ele>2.06</ele><time>2011-09-17T18:36:05Z</time></trkpt><trkpt lat="44.322170" lon="14.751378"><ele>2.54</ele><time>2011-09-17T18:36:42Z</time></trkpt><trkpt lat="44.321453" lon="14.752405"><ele>1.10</ele><time>2011-09-17T18:37:16Z</time></trkpt><trkpt lat="44.320717" lon="14.753462"><ele>2.06</ele><time>2011-09-17T18:37:51Z</time></trkpt><trkpt lat="44.320011" lon="14.754440"><ele>0.62</ele><time>2011-09-17T18:38:24Z</time></trkpt><trkpt lat="44.319366" lon="14.755341"><ele>1.58</ele><time>2011-09-17T18:38:54Z</time></trkpt><trkpt lat="44.318722" lon="14.756224"><ele>1.58</ele><time>2011-09-17T18:39:24Z</time></trkpt><trkpt lat="44.317947" lon="14.757287"><ele>2.54</ele><time>2011-09-17T18:40:00Z</time></trkpt><trkpt lat="44.317291" lon="14.758204"><ele>0.62</ele><time>2011-09-17T18:40:31Z</time></trkpt><trkpt lat="44.316540" lon="14.759255"><ele>3.02</ele><time>2011-09-17T18:41:06Z</time></trkpt><trkpt lat="44.315853" lon="14.760192"><ele>3.50</ele><time>2011-09-17T18:41:38Z</time></trkpt><trkpt lat="44.315083" lon="14.761296"><ele>2.06</ele><time>2011-09-17T18:42:15Z</time></trkpt><trkpt lat="44.314274" lon="14.762465"><ele>1.10</ele><time>2011-09-17T18:42:54Z</time></trkpt><trkpt lat="44.313560" lon="14.763483"><ele>2.54</ele><time>2011-09-17T18:43:28Z</time></trkpt><trkpt lat="44.312904" lon="14.764404"><ele>1.10</ele><time>2011-09-17T18:43:59Z</time></trkpt><trkpt lat="44.312191" lon="14.765459"><ele>1.10</ele><time>2011-09-17T18:44:34Z</time></trkpt><trkpt lat="44.311478" lon="14.766506"><ele>1.58</ele><time>2011-09-17T18:45:09Z</time></trkpt><trkpt lat="44.310802" lon="14.767450"><ele>0.62</ele><time>2011-09-17T18:45:41Z</time></trkpt><trkpt lat="44.309994" lon="14.768552"><ele>1.10</ele><time>2011-09-17T18:46:19Z</time></trkpt><trkpt lat="44.309219" lon="14.769631"><ele>0.14</ele><time>2011-09-17T18:46:56Z</time></trkpt><trkpt lat="44.308548" lon="14.770583"><ele>1.10</ele><time>2011-09-17T18:47:28Z</time></trkpt><trkpt lat="44.307617" lon="14.771877"><ele>2.06</ele><time>2011-09-17T18:48:12Z</time></trkpt><trkpt lat="44.306759" lon="14.773069"><ele>1.10</ele><time>2011-09-17T18:48:53Z</time></trkpt><trkpt lat="44.305935" lon="14.774261"><ele>-0.34</ele><time>2011-09-17T18:49:33Z</time></trkpt><trkpt lat="44.305187" lon="14.775345"><ele>0.62</ele><time>2011-09-17T18:50:09Z</time></trkpt><trkpt lat="44.304630" lon="14.776167"><ele>-0.82</ele><time>2011-09-17T18:50:36Z</time></trkpt><trkpt lat="44.303982" lon="14.777085"><ele>-0.34</ele><time>2011-09-17T18:51:07Z</time></trkpt><trkpt lat="44.303406" lon="14.777886"><ele>-0.34</ele><time>2011-09-17T18:51:34Z</time></trkpt><trkpt lat="44.302826" lon="14.778729"><ele>-0.82</ele><time>2011-09-17T18:52:02Z</time></trkpt><trkpt lat="44.302166" lon="14.779697"><ele>0.62</ele><time>2011-09-17T18:52:34Z</time></trkpt><trkpt lat="44.301495" lon="14.780592"><ele>1.10</ele><time>2011-09-17T18:53:05Z</time></trkpt><trkpt lat="44.300640" lon="14.781650"><ele>1.58</ele><time>2011-09-17T18:53:42Z</time></trkpt><trkpt lat="44.299732" lon="14.782741"><ele>1.58</ele><time>2011-09-17T18:54:21Z</time></trkpt><trkpt lat="44.298801" lon="14.783858"><ele>2.54</ele><time>2011-09-17T18:55:01Z</time></trkpt><trkpt lat="44.298000" lon="14.784856"><ele>3.02</ele><time>2011-09-17T18:55:36Z</time></trkpt><trkpt lat="44.297188" lon="14.785834"><ele>3.02</ele><time>2011-09-17T18:56:11Z</time></trkpt><trkpt lat="44.296417" lon="14.786760"><ele>3.02</ele><time>2011-09-17T18:56:44Z</time></trkpt><trkpt lat="44.295799" lon="14.787518"><ele>3.02</ele><time>2011-09-17T18:57:11Z</time></trkpt><trkpt lat="44.294994" lon="14.788489"><ele>2.06</ele><time>2011-09-17T18:57:46Z</time></trkpt><trkpt lat="44.294254" lon="14.789407"><ele>3.50</ele><time>2011-09-17T18:58:18Z</time></trkpt><trkpt lat="44.293549" lon="14.790215"><ele>3.98</ele><time>2011-09-17T18:58:48Z</time></trkpt><trkpt lat="44.292515" lon="14.791022"><ele>2.54</ele><time>2011-09-17T18:59:27Z</time></trkpt><trkpt lat="44.291512" lon="14.791812"><ele>2.54</ele><time>2011-09-17T19:00:05Z</time></trkpt><trkpt lat="44.290401" lon="14.792655"><ele>3.50</ele><time>2011-09-17T19:00:46Z</time></trkpt><trkpt lat="44.289337" lon="14.793502"><ele>3.02</ele><time>2011-09-17T19:01:26Z</time></trkpt><trkpt lat="44.288445" lon="14.794175"><ele>1.58</ele><time>2011-09-17T19:01:59Z</time></trkpt><trkpt lat="44.287338" lon="14.795039"><ele>3.50</ele><time>2011-09-17T19:02:40Z</time></trkpt><trkpt lat="44.286343" lon="14.795794"><ele>3.50</ele><time>2011-09-17T19:03:17Z</time></trkpt><trkpt lat="44.285431" lon="14.796481"><ele>3.02</ele><time>2011-09-17T19:03:51Z</time></trkpt><trkpt lat="44.284492" lon="14.797201"><ele>2.06</ele><time>2011-09-17T19:04:26Z</time></trkpt><trkpt lat="44.283382" lon="14.798044"><ele>2.06</ele><time>2011-09-17T19:05:07Z</time></trkpt><trkpt lat="44.282406" lon="14.798830"><ele>1.58</ele><time>2011-09-17T19:05:44Z</time></trkpt><trkpt lat="44.281345" lon="14.799637"><ele>2.54</ele><time>2011-09-17T19:06:23Z</time></trkpt><trkpt lat="44.280285" lon="14.800483"><ele>2.54</ele><time>2011-09-17T19:07:03Z</time></trkpt><trkpt lat="44.279369" lon="14.801188"><ele>2.54</ele><time>2011-09-17T19:07:37Z</time></trkpt><trkpt lat="44.278294" lon="14.801995"><ele>2.54</ele><time>2011-09-17T19:08:17Z</time></trkpt><trkpt lat="44.277222" lon="14.802812"><ele>2.54</ele><time>2011-09-17T19:08:57Z</time></trkpt><trkpt lat="44.276310" lon="14.803506"><ele>2.06</ele><time>2011-09-17T19:09:31Z</time></trkpt><trkpt lat="44.275208" lon="14.804391"><ele>2.06</ele><time>2011-09-17T19:10:12Z</time></trkpt><trkpt lat="44.274254" lon="14.805144"><ele>2.54</ele><time>2011-09-17T19:10:48Z</time></trkpt><trkpt lat="44.273266" lon="14.805888"><ele>3.02</ele><time>2011-09-17T19:11:24Z</time></trkpt><trkpt lat="44.272652" lon="14.806328"><ele>3.02</ele><time>2011-09-17T19:11:49Z</time></trkpt><trkpt lat="44.272289" lon="14.806109"><ele>2.54</ele><time>2011-09-17T19:12:11Z</time></trkpt><trkpt lat="44.271908" lon="14.805752"><ele>1.10</ele><time>2011-09-17T19:12:41Z</time></trkpt><trkpt lat="44.271568" lon="14.805463"><ele>1.58</ele><time>2011-09-17T19:13:08Z</time></trkpt><trkpt lat="44.271049" lon="14.804971"><ele>2.06</ele><time>2011-09-17T19:13:43Z</time></trkpt><trkpt lat="44.270535" lon="14.804495"><ele>2.06</ele><time>2011-09-17T19:14:15Z</time></trkpt><trkpt lat="44.269939" lon="14.803975"><ele>2.06</ele><time>2011-09-17T19:14:50Z</time></trkpt><trkpt lat="44.269337" lon="14.803455"><ele>0.62</ele><time>2011-09-17T19:15:26Z</time></trkpt><trkpt lat="44.268810" lon="14.803000"><ele>1.10</ele><time>2011-09-17T19:15:57Z</time></trkpt><trkpt lat="44.268253" lon="14.802423"><ele>0.62</ele><time>2011-09-17T19:16:32Z</time></trkpt><trkpt lat="44.267639" lon="14.801736"><ele>1.10</ele><time>2011-09-17T19:17:12Z</time></trkpt><trkpt lat="44.267036" lon="14.801014"><ele>1.10</ele><time>2011-09-17T19:17:52Z</time></trkpt><trkpt lat="44.266518" lon="14.800391"><ele>2.06</ele><time>2011-09-17T19:18:26Z</time></trkpt><trkpt lat="44.266056" lon="14.799799"><ele>3.98</ele><time>2011-09-17T19:18:58Z</time></trkpt><trkpt lat="44.265598" lon="14.799214"><ele>3.98</ele><time>2011-09-17T19:19:38Z</time></trkpt><trkpt lat="44.265305" lon="14.798831"><ele>3.98</ele><time>2011-09-17T19:20:08Z</time></trkpt><trkpt lat="44.264973" lon="14.798417"><ele>3.98</ele><time>2011-09-17T19:20:43Z</time></trkpt><trkpt lat="44.264614" lon="14.797993"><ele>5.91</ele><time>2011-09-17T19:21:22Z</time></trkpt><trkpt lat="44.264320" lon="14.797708"><ele>3.98</ele><time>2011-09-17T19:21:53Z</time></trkpt><trkpt lat="44.263947" lon="14.797531"><ele>2.06</ele><time>2011-09-17T19:22:27Z</time></trkpt><trkpt lat="44.263527" lon="14.797410"><ele>2.06</ele><time>2011-09-17T19:23:02Z</time></trkpt><trkpt lat="44.263088" lon="14.797347"><ele>3.50</ele><time>2011-09-17T19:23:37Z</time></trkpt><trkpt lat="44.262714" lon="14.797396"><ele>2.06</ele><time>2011-09-17T19:24:13Z</time></trkpt><trkpt lat="44.262333" lon="14.797597"><ele>1.58</ele><time>2011-09-17T19:24:56Z</time></trkpt><trkpt lat="44.261913" lon="14.797535"><ele>2.54</ele><time>2011-09-17T19:25:40Z</time></trkpt><trkpt lat="44.261692" lon="14.797444"><ele>3.02</ele><time>2011-09-17T19:26:13Z</time></trkpt><trkpt lat="44.261597" lon="14.797229"><ele>3.02</ele><time>2011-09-17T19:26:51Z</time></trkpt><trkpt lat="44.261509" lon="14.797116"><ele>2.54</ele><time>2011-09-17T19:27:30Z</time></trkpt><trkpt lat="44.261509" lon="14.797112"><ele>3.02</ele><time>2011-09-17T19:28:09Z</time></trkpt><trkpt lat="44.261486" lon="14.797096"><ele>2.54</ele><time>2011-09-17T19:28:50Z</time></trkpt><trkpt lat="44.261429" lon="14.797075"><ele>3.02</ele><time>2011-09-17T19:29:34Z</time></trkpt><trkpt lat="44.261410" lon="14.797072"><ele>3.50</ele><time>2011-09-17T19:30:17Z</time></trkpt><trkpt lat="44.261387" lon="14.797079"><ele>3.02</ele><time>2011-09-17T19:31:04Z</time></trkpt><trkpt lat="44.261379" lon="14.797080"><ele>3.02</ele><time>2011-09-17T19:31:45Z</time></trkpt><trkpt lat="44.261368" lon="14.797086"><ele>3.02</ele><time>2011-09-17T19:32:14Z</time></trkpt><trkpt lat="44.261368" lon="14.797086"><ele>3.02</ele><time>2011-09-17T19:32:49Z</time></trkpt><trkpt lat="44.261368" lon="14.797090"><ele>3.02</ele><time>2011-09-17T19:33:23Z</time></trkpt><trkpt lat="44.261360" lon="14.797096"><ele>2.54</ele><time>2011-09-17T19:33:57Z</time></trkpt><trkpt lat="44.261356" lon="14.797105"><ele>3.02</ele><time>2011-09-17T19:34:39Z</time></trkpt><trkpt lat="44.261356" lon="14.797102"><ele>2.54</ele><time>2011-09-17T19:35:19Z</time></trkpt><trkpt lat="44.261356" lon="14.797098"><ele>2.54</ele><time>2011-09-17T19:36:00Z</time></trkpt><trkpt lat="44.261353" lon="14.797098"><ele>2.54</ele><time>2011-09-17T19:36:41Z</time></trkpt><trkpt lat="44.261349" lon="14.797098"><ele>2.06</ele><time>2011-09-17T19:37:21Z</time></trkpt><trkpt lat="44.261353" lon="14.797108"><ele>1.58</ele><time>2011-09-17T19:37:58Z</time></trkpt><trkpt lat="44.261349" lon="14.797112"><ele>1.58</ele><time>2011-09-17T19:38:33Z</time></trkpt><trkpt lat="44.261353" lon="14.797107"><ele>1.58</ele><time>2011-09-17T19:39:18Z</time></trkpt><trkpt lat="44.261353" lon="14.797107"><ele>1.58</ele><time>2011-09-17T19:39:55Z</time></trkpt><trkpt lat="44.261353" lon="14.797103"><ele>1.58</ele><time>2011-09-17T19:40:36Z</time></trkpt><trkpt lat="44.261353" lon="14.797102"><ele>1.58</ele><time>2011-09-17T19:41:07Z</time></trkpt><trkpt lat="44.261356" lon="14.797104"><ele>1.58</ele><time>2011-09-17T19:41:40Z</time></trkpt><trkpt lat="44.261360" lon="14.797112"><ele>1.58</ele><time>2011-09-17T19:42:16Z</time></trkpt><trkpt lat="44.261356" lon="14.797113"><ele>1.58</ele><time>2011-09-17T19:42:59Z</time></trkpt><trkpt lat="44.261356" lon="14.797113"><ele>1.58</ele><time>2011-09-17T19:43:30Z</time></trkpt><trkpt lat="44.261356" lon="14.797095"><ele>1.58</ele><time>2011-09-17T19:44:19Z</time></trkpt><trkpt lat="44.261353" lon="14.797089"><ele>1.58</ele><time>2011-09-17T19:44:57Z</time></trkpt><trkpt lat="44.261349" lon="14.797083"><ele>1.58</ele><time>2011-09-17T19:45:36Z</time></trkpt><trkpt lat="44.261349" lon="14.797083"><ele>1.58</ele><time>2011-09-17T19:46:08Z</time></trkpt><trkpt lat="44.261349" lon="14.797081"><ele>1.58</ele><time>2011-09-17T19:46:44Z</time></trkpt><trkpt lat="44.261345" lon="14.797074"><ele>1.58</ele><time>2011-09-17T19:47:21Z</time></trkpt><trkpt lat="44.261341" lon="14.797071"><ele>1.58</ele><time>2011-09-17T19:48:01Z</time></trkpt><trkpt lat="44.261349" lon="14.797075"><ele>1.58</ele><time>2011-09-17T19:48:37Z</time></trkpt><trkpt lat="44.261349" lon="14.797077"><ele>1.58</ele><time>2011-09-17T19:49:13Z</time></trkpt><trkpt lat="44.261353" lon="14.797093"><ele>1.58</ele><time>2011-09-17T19:49:46Z</time></trkpt><trkpt lat="44.261353" lon="14.797092"><ele>1.58</ele><time>2011-09-17T19:50:21Z</time></trkpt><trkpt lat="44.261345" lon="14.797085"><ele>1.58</ele><time>2011-09-17T19:51:01Z</time></trkpt><trkpt lat="44.261345" lon="14.797078"><ele>1.58</ele><time>2011-09-17T19:51:37Z</time></trkpt><trkpt lat="44.261330" lon="14.797071"><ele>2.06</ele><time>2011-09-17T19:52:17Z</time></trkpt><trkpt lat="44.261330" lon="14.797069"><ele>2.06</ele><time>2011-09-17T19:52:54Z</time></trkpt><trkpt lat="44.261330" lon="14.797069"><ele>2.06</ele><time>2011-09-17T19:53:31Z</time></trkpt><trkpt lat="44.261330" lon="14.797079"><ele>2.06</ele><time>2011-09-17T19:54:11Z</time></trkpt><trkpt lat="44.261330" lon="14.797079"><ele>2.06</ele><time>2011-09-17T19:54:49Z</time></trkpt><trkpt lat="44.261341" lon="14.797093"><ele>2.06</ele><time>2011-09-17T19:55:31Z</time></trkpt><trkpt lat="44.261345" lon="14.797104"><ele>2.06</ele><time>2011-09-17T19:56:13Z</time></trkpt><trkpt lat="44.261349" lon="14.797102"><ele>2.06</ele><time>2011-09-17T19:56:54Z</time></trkpt><trkpt lat="44.261349" lon="14.797109"><ele>2.54</ele><time>2011-09-17T19:57:43Z</time></trkpt><trkpt lat="44.261349" lon="14.797113"><ele>2.54</ele><time>2011-09-17T19:58:24Z</time></trkpt><trkpt lat="44.261349" lon="14.797113"><ele>2.54</ele><time>2011-09-17T19:59:00Z</time></trkpt><trkpt lat="44.261345" lon="14.797111"><ele>2.54</ele><time>2011-09-17T19:59:43Z</time></trkpt><trkpt lat="44.261345" lon="14.797111"><ele>2.54</ele><time>2011-09-17T20:00:30Z</time></trkpt><trkpt lat="44.261349" lon="14.797115"><ele>2.54</ele><time>2011-09-17T20:01:13Z</time></trkpt><trkpt lat="44.261353" lon="14.797119"><ele>2.54</ele><time>2011-09-17T20:01:57Z</time></trkpt><trkpt lat="44.261356" lon="14.797126"><ele>2.54</ele><time>2011-09-17T20:02:40Z</time></trkpt><trkpt lat="44.261356" lon="14.797124"><ele>2.54</ele><time>2011-09-17T20:03:26Z</time></trkpt><trkpt lat="44.261353" lon="14.797112"><ele>2.54</ele><time>2011-09-17T20:04:11Z</time></trkpt><trkpt lat="44.261349" lon="14.797100"><ele>2.06</ele><time>2011-09-17T20:04:52Z</time></trkpt><trkpt lat="44.261341" lon="14.797093"><ele>2.06</ele><time>2011-09-17T20:05:34Z</time></trkpt><trkpt lat="44.261345" lon="14.797086"><ele>1.58</ele><time>2011-09-17T20:06:19Z</time></trkpt><trkpt lat="44.261345" lon="14.797091"><ele>1.58</ele><time>2011-09-17T20:07:05Z</time></trkpt><trkpt lat="44.261345" lon="14.797102"><ele>1.58</ele><time>2011-09-17T20:07:49Z</time></trkpt><trkpt lat="44.261353" lon="14.797108"><ele>1.58</ele><time>2011-09-17T20:08:29Z</time></trkpt><trkpt lat="44.261356" lon="14.797115"><ele>1.10</ele><time>2011-09-17T20:09:10Z</time></trkpt><trkpt lat="44.261360" lon="14.797120"><ele>1.10</ele><time>2011-09-17T20:09:49Z</time></trkpt><trkpt lat="44.261364" lon="14.797128"><ele>1.58</ele><time>2011-09-17T20:10:28Z</time></trkpt><trkpt lat="44.261368" lon="14.797122"><ele>1.10</ele><time>2011-09-17T20:11:14Z</time></trkpt><trkpt lat="44.261364" lon="14.797119"><ele>1.58</ele><time>2011-09-17T20:12:04Z</time></trkpt><trkpt lat="44.261364" lon="14.797122"><ele>1.58</ele><time>2011-09-17T20:12:49Z</time></trkpt><trkpt lat="44.261360" lon="14.797125"><ele>1.10</ele><time>2011-09-17T20:13:28Z</time></trkpt><trkpt lat="44.261364" lon="14.797140"><ele>1.10</ele><time>2011-09-17T20:14:14Z</time></trkpt><trkpt lat="44.261368" lon="14.797147"><ele>1.10</ele><time>2011-09-17T20:14:47Z</time></trkpt><trkpt lat="44.261368" lon="14.797147"><ele>1.10</ele><time>2011-09-17T20:15:18Z</time></trkpt><trkpt lat="44.261368" lon="14.797148"><ele>1.10</ele><time>2011-09-17T20:15:50Z</time></trkpt><trkpt lat="44.261372" lon="14.797144"><ele>1.10</ele><time>2011-09-17T20:16:21Z</time></trkpt><trkpt lat="44.261372" lon="14.797138"><ele>0.62</ele><time>2011-09-17T20:16:47Z</time></trkpt><trkpt lat="44.261372" lon="14.797138"><ele>0.62</ele><time>2011-09-17T20:17:21Z</time></trkpt><trkpt lat="44.261372" lon="14.797127"><ele>0.62</ele><time>2011-09-17T20:17:57Z</time></trkpt><trkpt lat="44.261368" lon="14.797115"><ele>0.14</ele><time>2011-09-17T20:18:30Z</time></trkpt><trkpt lat="44.261368" lon="14.797115"><ele>0.14</ele><time>2011-09-17T20:18:42Z</time></trkpt><trkpt lat="44.261364" lon="14.797102"><ele>0.62</ele><time>2011-09-17T20:19:06Z</time></trkpt><trkpt lat="44.261364" lon="14.797096"><ele>0.14</ele><time>2011-09-17T20:19:37Z</time></trkpt><trkpt lat="44.261364" lon="14.797093"><ele>0.14</ele><time>2011-09-17T20:20:05Z</time></trkpt><trkpt lat="44.261360" lon="14.797096"><ele>0.14</ele><time>2011-09-17T20:20:29Z</time></trkpt><trkpt lat="44.261360" lon="14.797096"><ele>0.14</ele><time>2011-09-17T20:21:04Z</time></trkpt><trkpt lat="44.261360" lon="14.797096"><ele>0.14</ele><time>2011-09-17T20:21:37Z</time></trkpt><trkpt lat="44.261364" lon="14.797097"><ele>-0.34</ele><time>2011-09-17T20:22:11Z</time></trkpt><trkpt lat="44.261364" lon="14.797106"><ele>-0.34</ele><time>2011-09-17T20:22:26Z</time></trkpt></trkseg><trkseg><trkpt lat="44.261360" lon="14.797178"><ele>-0.82</ele><time>2011-09-17T20:24:47Z</time></trkpt></trkseg><trkseg><trkpt lat="44.261375" lon="14.797182"><ele>0.14</ele><time>2011-09-17T20:24:48Z</time></trkpt><trkpt lat="44.261391" lon="14.797164"><ele>-0.34</ele><time>2011-09-17T20:25:01Z</time></trkpt></trkseg></trk></gpx>